Time;durP1;ratioP1;P1;durP2;ratioP2;P2;SDS_P1;SDS_P2;PMS_P1;PMS_P2;Temp;Humidity;BMP_temperature;BMP_pressure;BME280_temperature;BME280_humidity;BME280_pressure;Samples;Min_cycle;Max_cycle;Signal;HPM_P1;HPM_P2
2022/03/09 00:01:48;;;;;;;16.73;8.13;;;;;;;-0.61;92.41;102115.78;5086903;28;20639;-74
2022/03/09 00:04:14;;;;;;;14.23;8.10;;;;;;;-0.66;92.26;102113.38;5068502;28;20047;-73
2022/03/09 00:06:39;;;;;;;17.38;7.90;;;;;;;-0.71;92.08;102114.44;5086625;28;20032;-73
2022/03/09 00:09:05;;;;;;;15.90;8.13;;;;;;;-0.70;92.02;102106.53;5068349;28;20036;-74
2022/03/09 00:11:30;;;;;;;18.08;8.35;;;;;;;-0.72;92.40;102120.59;5067157;28;20274;-74
2022/03/09 00:13:56;;;;;;;17.63;8.45;;;;;;;-0.75;93.35;102133.81;5086808;28;20515;-73
2022/03/09 00:16:21;;;;;;;16.55;8.63;;;;;;;-0.81;93.71;102134.91;5086443;28;20028;-73
2022/03/09 00:18:48;;;;;;;17.35;8.63;;;;;;;-0.75;94.70;102165.28;5068627;28;20028;-73
2022/03/09 00:21:14;;;;;;;18.10;8.40;;;;;;;-0.87;95.74;102170.06;5051341;28;20218;-73
2022/03/09 00:23:40;;;;;;;14.80;8.73;;;;;;;-1.01;96.50;102164.44;5068437;28;20539;-73
2022/03/09 00:26:08;;;;;;;17.77;9.10;;;;;;;-1.19;97.15;102170.34;5052006;28;20032;-73
2022/03/09 00:28:34;;;;;;;16.48;8.48;;;;;;;-1.25;97.87;102168.75;5086254;28;20032;-73
2022/03/09 00:30:59;;;;;;;15.95;8.05;;;;;;;-1.33;97.91;102169.03;5068281;28;20027;-73
2022/03/09 00:33:24;;;;;;;18.03;8.17;;;;;;;-1.32;98.36;102175.97;5086214;28;20552;-73
2022/03/09 00:35:50;;;;;;;23.00;9.37;;;;;;;-1.31;99.08;102174.22;5068167;28;20748;-74
2022/03/09 00:38:15;;;;;;;16.07;8.40;;;;;;;-1.37;99.26;102170.03;5086043;28;20500;-73
2022/03/09 00:40:40;;;;;;;19.10;9.27;;;;;;;-1.39;99.93;102179.69;5085726;28;20351;-74
2022/03/09 00:43:06;;;;;;;17.70;7.90;;;;;;;-1.49;100.00;102178.28;5067635;28;20133;-73
2022/03/09 00:45:31;;;;;;;18.38;8.98;;;;;;;-1.60;99.78;102169.91;5067947;28;20115;-74
2022/03/09 00:47:57;;;;;;;16.80;9.30;;;;;;;-1.60;100.00;102175.16;5051302;28;20032;-73
2022/03/09 00:50:22;;;;;;;16.23;8.32;;;;;;;-1.69;99.96;102173.69;5067621;28;20044;-73
2022/03/09 00:52:49;;;;;;;18.58;8.10;;;;;;;-1.71;99.90;102170.25;5068099;28;20073;-73
2022/03/09 00:55:14;;;;;;;17.38;8.10;;;;;;;-1.77;100.00;102167.84;5086279;28;20035;-73
2022/03/09 00:57:41;;;;;;;14.75;8.60;;;;;;;-1.76;100.00;102175.63;5068013;28;20032;-73
2022/03/09 01:00:08;;;;;;;18.55;9.35;;;;;;;-1.75;100.00;102186.97;5067763;28;20020;-73
2022/03/09 01:02:42;;;;;;;21.80;9.70;;;;;;;-1.72;100.00;102187.72;5086223;28;20108;-74
2022/03/09 01:05:08;;;;;;;18.80;8.38;;;;;;;-1.78;100.00;102193.19;5085946;28;20032;-73
2022/03/09 01:07:33;;;;;;;16.60;8.02;;;;;;;-1.87;100.00;102171.63;5051340;28;20031;-73
2022/03/09 01:09:59;;;;;;;17.63;9.50;;;;;;;-1.78;100.00;102192.28;5067614;28;20040;-73
2022/03/09 01:12:24;;;;;;;16.70;9.02;;;;;;;-1.84;100.00;102192.50;5067905;28;20082;-73
2022/03/09 01:14:50;;;;;;;16.23;9.10;;;;;;;-1.95;100.00;102183.19;5067818;28;20032;-73
2022/03/09 01:17:15;;;;;;;22.10;9.98;;;;;;;-1.99;100.00;102188.56;5068023;28;20040;-73
2022/03/09 01:19:41;;;;;;;15.83;9.00;;;;;;;-2.05;100.00;102178.31;5067540;28;20043;-72
2022/03/09 01:22:06;;;;;;;17.53;9.07;;;;;;;-2.02;100.00;102184.28;5051043;28;20296;-73
2022/03/09 01:24:31;;;;;;;16.55;9.88;;;;;;;-2.02;100.00;102186.06;5067752;28;20040;-73
2022/03/09 01:26:57;;;;;;;18.47;9.90;;;;;;;-2.06;100.00;102184.44;5067989;28;20055;-73
2022/03/09 01:29:22;;;;;;;14.50;8.13;;;;;;;-2.08;100.00;102179.25;5086192;28;20035;-73
2022/03/09 01:31:47;;;;;;;18.93;9.50;;;;;;;-2.13;100.00;102176.78;5068357;28;20062;-73
2022/03/09 01:34:13;;;;;;;23.27;9.83;;;;;;;-2.20;100.00;102180.47;5067754;28;20770;-73
2022/03/09 01:36:38;;;;;;;27.65;10.13;;;;;;;-2.20;100.00;102172.63;5067944;28;20509;-73
2022/03/09 01:39:04;;;;;;;17.83;8.80;;;;;;;-2.21;100.00;102167.44;5085527;28;20060;-73
2022/03/09 01:41:30;;;;;;;16.05;8.98;;;;;;;-2.18;100.00;102175.19;5085520;28;20340;-73
2022/03/09 01:44:14;;;;;;;16.65;9.32;;;;;;;-2.21;100.00;102168.28;5067327;28;20044;-73
2022/03/09 01:46:40;;;;;;;17.55;8.82;;;;;;;-2.19;100.00;102166.47;5067626;28;20087;-73
2022/03/09 01:49:08;;;;;;;23.60;10.57;;;;;;;-2.17;100.00;102169.91;5067320;28;20427;-73
2022/03/09 01:51:37;;;;;;;17.65;9.05;;;;;;;-2.18;100.00;102172.56;5067158;28;20040;-73
2022/03/09 01:54:04;;;;;;;18.25;8.93;;;;;;;-2.22;100.00;102177.06;5067600;28;20146;-73
2022/03/09 01:56:30;;;;;;;15.85;8.73;;;;;;;-2.24;100.00;102173.63;5085589;28;20032;-73
2022/03/09 01:58:55;;;;;;;22.90;9.70;;;;;;;-2.34;100.00;102162.56;5067125;28;20036;-73
2022/03/09 02:01:21;;;;;;;23.08;10.85;;;;;;;-2.34;100.00;102165.19;5067711;28;20046;-73
2022/03/09 02:03:47;;;;;;;17.65;8.50;;;;;;;-2.37;100.00;102167.88;5067190;28;20031;-74
2022/03/09 02:06:12;;;;;;;17.23;9.90;;;;;;;-2.43;100.00;102162.00;5085692;28;20060;-73
2022/03/09 02:11:23;;;;;;;15.60;9.38;;;;;;;-2.44;100.00;102165.47;5067309;28;20031;-73
2022/03/09 02:13:49;;;;;;;19.90;9.43;;;;;;;-2.44;100.00;102165.47;5050620;28;20028;-73
2022/03/09 02:16:14;;;;;;;23.33;11.43;;;;;;;-2.47;100.00;102169.06;5085520;28;20413;-73
2022/03/09 02:18:40;;;;;;;18.48;10.32;;;;;;;-2.48;100.00;102162.13;5085108;28;20036;-74
2022/03/09 02:21:10;;;;;;;15.25;8.60;;;;;;;-2.48;100.00;102158.63;5085547;28;20055;-73
2022/03/09 02:23:35;;;;;;;18.02;9.55;;;;;;;-2.51;100.00;102162.19;5047561;28;20867;-74
2022/03/09 02:26:01;;;;;;;25.58;10.93;;;;;;;-2.56;100.00;102157.09;5067069;28;20040;-73
2022/03/09 02:28:26;;;;;;;22.85;11.63;;;;;;;-2.53;100.00;102166.59;5084027;28;20030;-73
2022/03/09 02:30:57;;;;;;;19.73;10.23;;;;;;;-2.50;100.00;102161.31;5050682;28;20035;-74
2022/03/09 02:33:23;;;;;;;20.25;10.13;;;;;;;-2.40;100.00;102167.13;5067375;28;20036;-73
2022/03/09 02:35:51;;;;;;;21.40;11.10;;;;;;;-2.43;100.00;102172.44;5088317;28;20165;-73
2022/03/09 02:38:17;;;;;;;18.85;9.25;;;;;;;-2.51;100.00;102169.19;5088798;28;20024;-73
2022/03/09 02:40:42;;;;;;;18.40;9.97;;;;;;;-2.55;100.00;102166.66;5088601;28;20039;-73
2022/03/09 02:43:07;;;;;;;22.17;10.50;;;;;;;-2.53;100.00;102170.97;5070265;28;20290;-73
2022/03/09 02:45:33;;;;;;;19.67;9.37;;;;;;;-2.58;100.00;102158.88;5088463;28;20830;-73
2022/03/09 02:47:58;;;;;;;20.63;10.40;;;;;;;-2.59;100.00;102159.78;5070549;28;20282;-73
2022/03/09 02:50:23;;;;;;;20.83;9.87;;;;;;;-2.60;100.00;102155.47;5070312;28;20274;-73
2022/03/09 02:52:49;;;;;;;20.00;9.18;;;;;;;-2.51;100.00;102161.34;5070438;28;20751;-73
2022/03/09 02:55:14;;;;;;;16.30;8.00;;;;;;;-2.51;100.00;102159.56;5053813;28;20139;-73
2022/03/09 02:57:41;;;;;;;20.08;10.52;;;;;;;-2.59;100.00;102144.09;5070396;28;20818;-73
2022/03/09 03:00:08;;;;;;;22.27;10.25;;;;;;;-2.58;100.00;102135.34;5069991;28;20032;-73
2022/03/09 03:02:34;;;;;;;20.63;9.88;;;;;;;-2.63;100.00;102139.84;5070035;28;20028;-73
2022/03/09 03:05:00;;;;;;;16.42;8.82;;;;;;;-2.66;100.00;102139.94;5088425;28;20677;-73
2022/03/09 03:07:56;;;;;;;17.52;8.90;;;;;;;-2.69;100.00;102134.81;5069994;28;20031;-73
2022/03/09 03:10:23;;;;;;;19.60;10.10;;;;;;;-2.68;100.00;102141.75;5068754;28;20028;-73
2022/03/09 03:12:49;;;;;;;24.23;10.57;;;;;;;-2.76;100.00;102134.13;5106755;28;20085;-73
2022/03/09 03:15:14;;;;;;;19.57;10.23;;;;;;;-2.83;100.00;102136.97;5090281;28;20123;-73
2022/03/09 03:17:39;;;;;;;19.88;9.63;;;;;;;-2.87;100.00;102135.31;5090156;28;20308;-73
2022/03/09 03:20:06;;;;;;;16.40;9.02;;;;;;;-2.93;100.00;102141.56;5108423;28;20078;-73
2022/03/09 03:22:31;;;;;;;14.52;8.82;;;;;;;-2.91;100.00;102145.00;5108157;28;20042;-73
2022/03/09 03:24:57;;;;;;;16.10;9.20;;;;;;;-2.96;100.00;102136.44;5073083;28;20400;-73
2022/03/09 03:27:22;;;;;;;18.13;9.48;;;;;;;-2.94;100.00;102146.84;5090061;28;20023;-74
2022/03/09 03:29:48;;;;;;;22.63;8.35;;;;;;;-2.98;100.00;102146.91;5072592;28;20036;-73
2022/03/09 03:32:13;;;;;;;16.63;8.55;;;;;;;-2.94;100.00;102149.47;5073353;28;20020;-73
2022/03/09 03:34:39;;;;;;;18.85;9.15;;;;;;;-2.95;100.00;102152.97;5090086;28;20055;-73
2022/03/09 03:37:05;;;;;;;16.83;8.85;;;;;;;-2.94;100.00;102149.47;5090040;28;20040;-73
2022/03/09 03:39:30;;;;;;;20.17;9.70;;;;;;;-2.99;100.00;102147.81;5107729;28;20604;-74
2022/03/09 03:41:55;;;;;;;21.20;9.98;;;;;;;-3.02;100.00;102150.53;5108011;28;20423;-73
2022/03/09 03:44:21;;;;;;;20.75;10.50;;;;;;;-3.05;100.00;102147.97;5089513;28;20035;-73
2022/03/09 03:46:46;;;;;;;17.05;8.95;;;;;;;-3.05;100.00;102147.97;5089730;28;20031;-73
2022/03/09 03:49:11;;;;;;;23.15;11.25;;;;;;;-3.06;100.00;102145.44;5106374;28;20383;-73
2022/03/09 03:51:37;;;;;;;23.50;12.07;;;;;;;-3.04;100.00;102143.63;5072627;28;20567;-73
2022/03/09 03:54:02;;;;;;;20.10;10.30;;;;;;;-2.98;100.00;102144.31;5089222;28;20462;-73
2022/03/09 03:56:28;;;;;;;24.77;12.13;;;;;;;-2.97;100.00;102151.25;5089487;28;20032;-74
2022/03/09 03:58:53;;;;;;;20.90;12.68;;;;;;;-2.94;100.00;102146.84;5107527;28;20112;-74
2022/03/09 04:01:18;;;;;;;27.05;11.90;;;;;;;-2.86;100.00;102157.94;5072303;28;20046;-74
2022/03/09 04:03:44;;;;;;;21.65;11.10;;;;;;;-2.92;100.00;102153.75;5107265;28;20034;-73
2022/03/09 04:06:09;;;;;;;23.52;11.95;;;;;;;-2.94;100.00;102160.78;5107487;28;20071;-73
2022/03/09 04:08:34;;;;;;;22.15;10.23;;;;;;;-3.09;100.00;102155.94;5089031;28;20035;-74
2022/03/09 04:11:00;;;;;;;22.45;11.45;;;;;;;-3.13;100.00;102160.41;5107251;28;20819;-74
2022/03/09 04:13:25;;;;;;;29.23;11.20;;;;;;;-3.17;100.00;102161.38;5058406;23;20080;-88
2022/03/09 04:15:51;;;;;;;22.30;11.70;;;;;;;-3.21;100.00;102157.13;5026961;28;20036;-86
2022/03/09 04:18:16;;;;;;;24.00;11.38;;;;;;;-3.22;100.00;102161.50;5035276;28;20055;-87
2022/03/09 04:20:42;;;;;;;23.67;11.50;;;;;;;-3.25;100.00;102158.13;5035094;28;20041;-85
2022/03/09 04:23:09;;;;;;;24.85;11.60;;;;;;;-3.26;100.00;102157.22;5035101;28;20100;-86
2022/03/09 04:25:35;;;;;;;26.88;10.80;;;;;;;-3.23;100.00;102167.63;5018699;28;20481;-85
2022/03/09 04:28:02;;;;;;;26.40;12.25;;;;;;;-3.22;100.00;102158.88;5051766;28;20057;-86
2022/03/09 04:30:28;;;;;;;24.65;11.77;;;;;;;-3.25;100.00;102160.72;5018098;28;20043;-86
2022/03/09 04:32:53;;;;;;;26.42;11.60;;;;;;;-3.30;100.00;102154.72;5018475;28;20025;-85
2022/03/09 04:35:18;;;;;;;24.25;11.50;;;;;;;-3.31;100.00;102160.88;5036616;28;20033;-87
2022/03/09 04:37:44;;;;;;;26.13;11.10;;;;;;;-3.26;100.00;102169.44;5018053;28;20032;-85
2022/03/09 04:40:10;;;;;;;23.52;11.52;;;;;;;-3.16;100.00;102173.56;5034506;28;20055;-85
2022/03/09 04:42:35;;;;;;;20.30;10.63;;;;;;;-3.20;100.00;102182.34;5019860;28;20029;-87
2022/03/09 04:45:01;;;;;;;19.25;9.95;;;;;;;-3.25;100.00;102181.63;5053975;28;20032;-88
2022/03/09 04:47:26;;;;;;;19.73;10.60;;;;;;;-3.28;100.00;102181.69;5019228;28;20523;-86
2022/03/09 04:49:51;;;;;;;21.50;9.82;;;;;;;-3.28;100.00;102176.44;5034999;28;20089;-86
2022/03/09 04:52:18;;;;;;;;;;;;;;;-3.28;100.00;102186.91;5052181;28;20377;-85
2022/03/09 04:54:43;;;;;;;22.13;9.95;;;;;;;-3.34;100.00;102181.84;5018256;28;19935;-86
2022/03/09 04:57:09;;;;;;;22.02;12.15;;;;;;;-3.35;100.00;102169.66;5017577;28;20497;-86
2022/03/09 04:59:34;;;;;;;25.45;12.45;;;;;;;-3.36;100.00;102167.97;5050361;28;20068;-85
2022/03/09 05:02:00;;;;;;;33.53;12.95;;;;;;;-3.40;100.00;102170.63;5034166;28;20760;-85
2022/03/09 05:04:25;;;;;;;21.67;11.10;;;;;;;-3.46;100.00;102173.41;5033182;28;20049;-85
2022/03/09 05:06:51;;;;;;;23.73;10.68;;;;;;;-3.46;100.00;102169.97;5033729;28;20064;-87
2022/03/09 05:09:16;;;;;;;25.95;11.18;;;;;;;-3.41;100.00;102166.31;5033961;28;20485;-87
2022/03/09 05:11:41;;;;;;;22.15;11.45;;;;;;;-3.44;100.00;102162.94;5017155;28;20137;-87
2022/03/09 05:14:07;;;;;;;23.23;12.02;;;;;;;-3.37;100.00;102166.22;5033374;28;20040;-85
2022/03/09 05:16:32;;;;;;;28.05;11.48;;;;;;;-3.37;100.00;102163.63;5033655;28;20119;-87
2022/03/09 05:18:57;;;;;;;19.45;9.73;;;;;;;-3.38;100.00;102168.00;5033069;28;20036;-85
2022/03/09 05:21:23;;;;;;;28.63;11.32;;;;;;;-3.38;100.00;102167.16;5033549;28;20021;-85
2022/03/09 05:23:48;;;;;;;24.75;11.23;;;;;;;-3.34;100.00;102164.41;5033179;28;20056;-87
2022/03/09 05:26:13;;;;;;;20.50;10.75;;;;;;;-3.38;100.00;102165.38;5033610;28;20087;-85
2022/03/09 05:28:39;;;;;;;23.67;11.27;;;;;;;-3.35;100.00;102172.28;5016559;28;20075;-86
2022/03/09 05:31:04;;;;;;;21.67;11.70;;;;;;;-3.27;100.00;102175.56;5033495;28;20930;-86
2022/03/09 05:33:30;;;;;;;20.50;11.43;;;;;;;-3.16;100.00;102178.78;5033606;28;20032;-85
2022/03/09 05:35:55;;;;;;;22.35;11.02;;;;;;;-3.12;100.00;102184.78;5017080;28;20060;-87
2022/03/09 05:38:21;;;;;;;22.60;11.93;;;;;;;-3.06;100.00;102187.22;5017599;28;20520;-86
2022/03/09 05:40:46;;;;;;;18.40;10.35;;;;;;;-2.96;100.00;102193.91;5017879;28;20469;-86
2022/03/09 05:43:12;;;;;;;24.42;11.10;;;;;;;-2.91;100.00;102196.41;5016985;28;20041;-86
2022/03/09 05:45:37;;;;;;;24.80;11.43;;;;;;;-2.98;100.00;102191.34;5033846;28;20033;-86
2022/03/09 05:48:04;;;;;;;21.40;11.00;;;;;;;-3.00;100.00;102195.78;5051656;28;20065;-87
2022/03/09 05:50:29;;;;;;;23.02;11.10;;;;;;;-3.04;100.00;102203.72;5016917;28;20089;-85
2022/03/09 05:52:54;;;;;;;26.13;11.85;;;;;;;-3.02;100.00;102210.63;5033620;28;20033;-86
2022/03/09 05:55:20;;;;;;;20.77;11.40;;;;;;;-3.01;100.00;102204.50;5049897;28;20486;-86
2022/03/09 05:57:46;;;;;;;26.52;13.57;;;;;;;-3.00;100.00;102205.34;5016912;28;20886;-86
2022/03/09 06:00:13;;;;;;;25.52;12.43;;;;;;;-3.00;100.00;102208.84;5016975;28;20039;-86
2022/03/09 06:02:39;;;;;;;;;;;;;;;-3.00;100.00;102210.56;5050576;28;20013;-86
2022/03/09 06:05:05;;;;;;;24.02;11.93;;;;;;;-3.06;100.00;102206.38;5016666;28;19966;-85
2022/03/09 06:07:32;;;;;;;;;;;;;;;-3.04;100.00;102207.19;5017021;28;20041;-87
2022/03/09 06:09:58;;;;;;;26.25;10.70;;;;;;;-3.01;100.00;102212.34;5037880;28;20286;-87
2022/03/09 06:12:23;;;;;;;19.95;10.35;;;;;;;-2.95;100.00;102210.47;5062578;28;20029;-86
2022/03/09 06:14:50;;;;;;;25.75;12.13;;;;;;;-2.98;100.00;102214.00;5021456;28;20037;-86
2022/03/09 06:17:15;;;;;;;20.92;10.50;;;;;;;-2.98;100.00;102211.41;5054844;28;20725;-89
2022/03/09 06:19:41;;;;;;;21.15;10.98;;;;;;;-2.97;100.00;102215.75;5038066;28;20127;-86
2022/03/09 06:22:06;;;;;;;23.38;10.88;;;;;;;-2.92;100.00;102221.69;5027694;28;20036;-84
2022/03/09 06:24:31;;;;;;;22.70;10.70;;;;;;;-2.90;100.00;102216.41;5037401;28;20054;-87
2022/03/09 06:26:57;;;;;;;25.85;11.90;;;;;;;-2.85;100.00;102218.03;5037156;28;20126;-85
2022/03/09 06:29:22;;;;;;;19.80;10.68;;;;;;;-2.84;100.00;102213.66;5026076;28;20151;-86
2022/03/09 06:31:47;;;;;;;20.58;11.00;;;;;;;-2.64;100.00;102215.75;5000380;28;20029;-87
2022/03/09 06:34:13;;;;;;;20.63;11.55;;;;;;;-2.24;100.00;102219.88;4997371;28;20506;-86
2022/03/09 06:36:43;;;;;;;20.27;12.13;;;;;;;-1.93;100.00;102225.91;4997002;28;20037;-86
2022/03/09 06:39:09;;;;;;;26.00;11.15;;;;;;;-1.89;100.00;102221.44;4997578;28;20394;-86
2022/03/09 06:41:34;;;;;;;24.02;11.00;;;;;;;-1.74;100.00;102226.19;4997363;28;20056;-86
2022/03/09 06:44:00;;;;;;;20.20;9.82;;;;;;;-1.52;100.00;102215.06;4997778;28;20490;-88
2022/03/09 06:46:25;;;;;;;23.30;10.35;;;;;;;-0.73;100.00;102218.53;5014571;28;20034;-85
2022/03/09 06:48:50;;;;;;;18.60;9.97;;;;;;;-0.03;100.00;102226.47;4996675;28;20052;-87
2022/03/09 06:51:16;;;;;;;17.33;9.40;;;;;;;0.41;100.00;102212.53;5013330;28;20415;-87
2022/03/09 06:53:44;;;;;;;15.70;8.37;;;;;;;0.81;100.00;102184.63;4995584;28;20032;-85
2022/03/09 06:56:10;;;;;;;14.73;7.53;;;;;;;1.08;100.00;102166.84;4995559;28;20509;-88
2022/03/09 06:58:35;;;;;;;13.65;7.43;;;;;;;1.18;100.00;102135.72;4995488;28;20131;-87
2022/03/09 07:01:01;;;;;;;26.07;8.20;;;;;;;1.32;99.11;102114.06;5011779;28;20109;-86
2022/03/09 07:03:28;;;;;;;17.90;8.03;;;;;;;1.55;95.67;102092.78;5011481;28;20057;-88
2022/03/09 07:05:54;;;;;;;16.65;6.80;;;;;;;1.61;93.24;102060.91;4995021;28;20030;-85
2022/03/09 07:08:19;;;;;;;15.35;8.13;;;;;;;1.89;91.15;102062.22;5012598;28;20025;-84
2022/03/09 07:10:46;;;;;;;14.65;7.78;;;;;;;2.21;88.99;102049.25;5028342;28;20037;-87
2022/03/09 07:13:12;;;;;;;15.55;8.27;;;;;;;2.56;87.22;102025.53;5012109;28;20046;-86
2022/03/09 07:15:38;;;;;;;15.43;7.45;;;;;;;2.81;85.13;102006.63;5011850;28;20466;-86
2022/03/09 07:18:03;;;;;;;12.35;7.38;;;;;;;2.86;83.50;101973.81;5011655;28;20061;-86
2022/03/09 07:20:29;;;;;;;14.30;7.78;;;;;;;3.00;81.89;101944.03;5026933;28;20076;-87
2022/03/09 07:22:55;;;;;;;11.60;7.35;;;;;;;3.38;80.99;101943.69;4994715;28;20037;-86
2022/03/09 07:25:20;;;;;;;17.00;9.07;;;;;;;3.72;79.75;101925.91;5010921;28;20044;-86
2022/03/09 07:27:46;;;;;;;18.77;7.40;;;;;;;4.05;78.54;101922.22;4994152;28;20179;-87
2022/03/09 07:30:11;;;;;;;12.47;6.60;;;;;;;4.27;77.30;101895.34;4993962;28;20347;-87
2022/03/09 07:32:37;;;;;;;16.63;7.93;;;;;;;4.29;75.70;101859.94;4994655;28;20276;-86
2022/03/09 07:35:04;;;;;;;13.55;7.80;;;;;;;4.18;74.47;101806.88;4994300;28;20497;-86
2022/03/09 07:37:30;;;;;;;10.95;7.18;;;;;;;4.42;73.93;101830.94;4994010;28;20061;-86
2022/03/09 07:39:55;;;;;;;11.47;7.60;;;;;;;4.96;73.35;101846.88;5010051;28;20041;-85
2022/03/09 07:42:20;;;;;;;14.97;8.10;;;;;;;5.11;72.20;101808.00;4994361;28;20495;-87
2022/03/09 07:44:46;;;;;;;11.63;6.83;;;;;;;5.54;70.96;101775.13;4994224;28;20474;-87
2022/03/09 07:47:11;;;;;;;11.83;6.70;;;;;;;5.74;69.70;101749.94;4994157;28;20044;-86
2022/03/09 07:49:37;;;;;;;13.73;7.77;;;;;;;5.88;69.15;101718.84;4993883;28;20141;-85
2022/03/09 07:52:03;;;;;;;;;;;;;;;6.08;68.42;101729.88;5010799;28;20033;-86
2022/03/09 07:54:28;;;;;;;;;;;;;;;6.30;67.59;101714.13;5026889;28;20461;-85
2022/03/09 07:56:55;;;;;;;15.73;8.23;;;;;;;5.75;66.79;101622.63;5026268;28;19913;-87
2022/03/09 07:59:23;;;;;;;15.90;7.38;;;;;;;6.00;66.58;101666.81;5009887;28;20026;-87
2022/03/09 08:01:53;;;;;;;;;;;;;;;6.80;66.19;101737.06;5010304;28;20095;-86
2022/03/09 08:04:22;;;;;;;13.25;6.78;;;;;;;7.38;65.17;101730.84;5009364;28;19917;-88
2022/03/09 08:06:54;;;;;;;11.43;6.90;;;;;;;7.77;63.77;101698.63;4993715;28;20022;-86
2022/03/09 08:09:19;;;;;;;10.73;7.15;;;;;;;8.23;62.07;101639.94;5010830;28;20037;-87
2022/03/09 08:11:45;;;;;;;10.20;6.60;;;;;;;8.79;60.35;101600.78;4993151;28;20037;-87
2022/03/09 08:14:12;;;;;;;10.98;6.55;;;;;;;8.99;59.28;101561.78;4993266;28;20058;-87
2022/03/09 08:16:38;;;;;;;;;;;;;;;9.21;57.79;101518.16;5009672;28;20037;-86
2022/03/09 08:19:03;;;;;;;;;;;;;;;8.95;56.63;101421.91;4992928;28;19917;-89
2022/03/09 08:21:29;;;;;;;9.63;5.95;;;;;;;8.95;56.58;101448.53;5011040;28;19915;-87
2022/03/09 08:23:54;;;;;;;11.43;6.10;;;;;;;8.34;56.17;101348.22;5010581;28;20044;-86
2022/03/09 08:26:20;;;;;;;;;;;;;;;9.32;56.03;101522.53;4993366;28;20038;-88
2022/03/09 08:28:46;;;;;;;;;;;;;;;9.90;54.74;101495.97;5009496;28;19909;-86
2022/03/09 08:31:12;;;;;;;11.47;5.70;;;;;;;8.71;54.85;101329.03;5009163;28;19913;-86
2022/03/09 08:33:37;;;;;;;9.98;6.68;;;;;;;9.51;54.16;101415.97;5009380;28;20402;-87
2022/03/09 08:36:04;;;;;;;9.63;5.75;;;;;;;10.11;54.06;101480.69;5009641;28;20057;-88
2022/03/09 08:38:29;;;;;;;11.88;6.10;;;;;;;10.07;53.65;101467.78;5008792;28;20068;-88
2022/03/09 08:40:55;;;;;;;13.13;6.40;;;;;;;10.88;52.46;101454.78;5008816;28;20184;-87
2022/03/09 08:43:21;;;;;;;;;;;;;;;11.34;50.72;101370.16;5009585;28;20034;-85
2022/03/09 08:45:46;;;;;;;;;;;;;;;11.91;49.61;101366.31;4993007;28;19936;-86
2022/03/09 08:48:12;;;;;;;11.00;6.77;;;;;;;11.86;48.63;101242.84;5008964;28;20324;-87
2022/03/09 08:50:37;;;;;;;10.48;6.40;;;;;;;12.03;48.39;101288.31;5009080;28;20065;-88
2022/03/09 08:53:03;;;;;;;12.40;6.37;;;;;;;12.40;48.45;101326.44;4992803;28;20076;-86
2022/03/09 08:55:29;;;;;;;10.55;5.45;;;;;;;12.65;47.63;101292.56;4992124;28;20116;-86
2022/03/09 08:57:55;;;;;;;10.13;5.90;;;;;;;13.36;46.96;101328.75;5009078;28;20456;-86
2022/03/09 09:00:21;;;;;;;8.82;5.95;;;;;;;13.43;46.24;101276.13;4992240;28;20178;-88
2022/03/09 09:02:46;;;;;;;9.00;5.93;;;;;;;13.23;46.30;101211.25;5008754;28;20044;-85
2022/03/09 09:05:12;;;;;;;9.77;5.97;;;;;;;13.41;46.07;101234.38;5008708;28;20022;-85
2022/03/09 09:07:37;;;;;;;8.87;5.77;;;;;;;13.70;46.15;101293.72;4993142;28;20063;-86
2022/03/09 09:10:04;;;;;;;9.60;5.63;;;;;;;13.25;44.64;101085.91;4991612;28;20038;-87
2022/03/09 09:12:30;;;;;;;9.52;5.43;;;;;;;13.55;45.46;101265.03;4991795;28;20030;-86
2022/03/09 09:14:56;;;;;;;11.20;5.55;;;;;;;13.54;43.55;101054.97;4991944;28;20049;-89
2022/03/09 09:17:21;;;;;;;4.43;3.60;;;;;;;13.58;43.63;101106.41;5024757;28;20120;-86
2022/03/09 09:19:46;;;;;;;7.63;3.83;;;;;;;11.76;43.22;100780.22;4991906;28;20394;-87
2022/03/09 09:22:12;;;;;;;6.40;3.67;;;;;;;11.17;42.98;100708.25;4992042;28;20116;-85
2022/03/09 09:24:38;;;;;;;8.18;4.10;;;;;;;11.27;43.77;100841.69;4992164;28;20180;-86
2022/03/09 09:27:03;;;;;;;9.07;3.40;;;;;;;11.18;43.14;100788.22;5008336;28;20026;-87
2022/03/09 09:29:30;;;;;;;;;;;;;;;11.99;42.39;100864.16;4991919;28;20041;-86
2022/03/09 09:31:55;;;;;;;8.95;4.95;;;;;;;10.11;42.99;100578.94;4992527;28;19917;-88
2022/03/09 09:34:21;;;;;;;9.55;4.57;;;;;;;9.24;45.82;100769.22;5008557;28;20021;-86
2022/03/09 09:36:47;;;;;;;10.60;4.17;;;;;;;9.95;45.48;100885.63;4992488;28;20042;-86
2022/03/09 09:39:14;;;;;;;7.15;4.43;;;;;;;10.04;45.00;100846.47;4993249;28;20280;-86
2022/03/09 09:41:42;;;;;;;6.80;4.80;;;;;;;10.38;45.16;100947.16;4993046;28;20022;-87
2022/03/09 09:44:10;;;;;;;6.20;3.67;;;;;;;10.78;44.55;100987.44;4995358;28;20096;-87
2022/03/09 09:46:39;;;;;;;9.15;4.18;;;;;;;11.76;43.60;101018.25;5029864;28;20069;-87
2022/03/09 09:49:12;;;;;;;6.70;3.80;;;;;;;11.87;42.85;100955.56;5029070;28;20395;-86
2022/03/09 09:51:39;;;;;;;12.55;5.47;;;;;;;10.68;43.19;100725.03;4996253;28;20048;-87
2022/03/09 09:54:07;;;;;;;7.10;4.25;;;;;;;11.14;43.47;100885.78;5012813;28;20030;-87
2022/03/09 09:56:38;;;;;;;7.43;4.30;;;;;;;10.42;43.17;100709.13;4996123;28;20029;-85
2022/03/09 09:59:04;;;;;;;6.78;4.13;;;;;;;10.07;43.51;100737.66;5012371;28;20179;-88
2022/03/09 10:01:30;;;;;;;7.65;3.78;;;;;;;9.51;44.62;100725.66;5012780;28;20034;-86
2022/03/09 10:03:55;;;;;;;7.33;4.10;;;;;;;9.77;45.30;100901.63;5015243;28;20056;-89
2022/03/09 10:06:20;;;;;;;8.53;4.37;;;;;;;9.78;45.04;100881.13;5033818;28;20124;-88
2022/03/09 10:09:05;;;;;;;8.73;5.00;;;;;;;9.90;44.14;100802.53;5016449;28;20063;-86
2022/03/09 10:12:05;;;;;;;11.65;4.43;;;;;;;10.13;44.50;100907.72;5016490;28;20048;-87
2022/03/09 10:14:41;;;;;;;13.30;5.07;;;;;;;10.75;43.25;100869.44;4983961;28;20046;-87
2022/03/09 10:17:12;;;;;;;15.88;5.60;;;;;;;10.68;43.06;100831.03;5032354;28;20065;-87
2022/03/09 10:19:41;;;;;;;7.30;4.45;;;;;;;11.43;42.79;100979.91;5032644;28;20045;-87
2022/03/09 10:22:31;;;;;;;7.95;5.00;;;;;;;11.39;41.66;100856.41;4997999;28;20587;-87
2022/03/09 10:25:10;;;;;;;6.55;4.13;;;;;;;10.34;41.18;100557.81;5014824;28;20042;-88
2022/03/09 10:27:43;;;;;;;6.07;3.67;;;;;;;9.88;42.44;100640.06;5031321;28;20045;-87
2022/03/09 10:30:14;;;;;;;7.30;3.92;;;;;;;9.58;42.94;100661.91;4998441;28;20047;-87
2022/03/09 10:32:43;;;;;;;7.78;4.10;;;;;;;10.29;42.33;100762.13;4998798;28;20482;-87
2022/03/09 10:35:10;;;;;;;6.72;3.17;;;;;;;10.76;41.40;100743.75;5016514;28;20109;-86
2022/03/09 10:37:40;;;;;;;7.40;4.65;;;;;;;10.32;42.35;100730.63;5017000;28;20037;-88
2022/03/09 10:40:17;;;;;;;8.10;3.85;;;;;;;10.54;42.16;100782.56;5015297;28;20124;-87
2022/03/09 10:42:43;;;;;;;7.50;3.55;;;;;;;11.55;41.12;100875.13;5015641;28;20059;-85
2022/03/09 10:45:10;;;;;;;9.25;3.72;;;;;;;12.60;39.26;100861.81;5000029;28;20493;-87
2022/03/09 10:47:42;;;;;;;;;;;;;;;12.39;39.47;100835.63;5033188;28;20485;-89
2022/03/09 10:50:21;;;;;;;5.00;3.63;;;;;;;11.75;39.16;100648.31;4999074;28;19920;-85
2022/03/09 10:52:55;;;;;;;7.15;4.18;;;;;;;12.84;37.99;100798.44;5034593;28;20025;-86
2022/03/09 10:55:35;;;;;;;6.82;3.72;;;;;;;13.36;37.42;100788.91;4999329;28;20033;-86
2022/03/09 10:58:13;;;;;;;8.55;4.30;;;;;;;10.94;38.47;100371.50;5031243;28;20065;-86
2022/03/09 11:00:42;;;;;;;6.18;3.67;;;;;;;11.66;39.59;100713.53;5014653;28;20064;-86
2022/03/09 11:03:11;;;;;;;6.45;3.92;;;;;;;12.36;38.19;100661.09;5014924;28;20022;-86
2022/03/09 11:05:56;;;;;;;7.18;3.85;;;;;;;11.63;38.73;100609.56;5015171;28;20151;-86
2022/03/09 11:08:24;;;;;;;10.55;3.88;;;;;;;11.94;38.19;100611.47;4999333;28;20036;-86
2022/03/09 11:10:50;;;;;;;9.63;4.15;;;;;;;12.93;38.26;100802.72;5002090;28;20421;-87
2022/03/09 11:13:17;;;;;;;10.32;4.15;;;;;;;13.07;37.22;100649.19;5033026;28;20082;-86
2022/03/09 11:15:44;;;;;;;7.88;4.28;;;;;;;12.36;38.05;100624.47;5032127;28;20104;-87
2022/03/09 11:18:20;;;;;;;8.20;4.32;;;;;;;12.58;38.12;100657.63;5031358;28;20033;-85